Time;durP1;ratioP1;P1;durP2;ratioP2;P2;SDS_P1;SDS_P2;PMS_P1;PMS_P2;Temp;Humidity;BMP_temperature;BMP_pressure;BME280_temperature;BME280_humidity;BME280_pressure;Samples;Min_cycle;Max_cycle;Signal;HPM_P1;HPM_P2
2022/04/20 00:02:23;;;;;;;9.43;2.88;;;;;;;9.59;100.00;101790.13;5068633;28;20076;-82
2022/04/20 00:04:53;;;;;;;10.38;2.30;;;;;;;9.63;100.00;101807.50;5053937;28;20110;-82
2022/04/20 00:07:20;;;;;;;7.80;2.08;;;;;;;9.73;100.00;101797.72;5052764;28;20127;-81
2022/04/20 00:09:48;;;;;;;8.35;2.35;;;;;;;9.84;100.00;101787.06;5060682;28;20066;-81
2022/04/20 00:12:14;;;;;;;9.50;2.40;;;;;;;9.79;100.00;101781.06;5064740;28;20518;-81
2022/04/20 00:14:41;;;;;;;9.00;2.10;;;;;;;9.92;100.00;101803.50;5067493;28;20053;-82
2022/04/20 00:17:08;;;;;;;7.40;1.80;;;;;;;9.73;100.00;101781.19;5072740;28;20092;-82
2022/04/20 00:19:35;;;;;;;8.00;1.80;;;;;;;9.88;100.00;101787.00;5071715;28;20049;-82
2022/04/20 00:22:02;;;;;;;7.57;1.80;;;;;;;9.82;100.00;101779.25;5072845;28;20049;-82
2022/04/20 00:24:29;;;;;;;6.43;1.73;;;;;;;9.75;100.00;101766.31;5073733;28;20056;-82
2022/04/20 00:26:56;;;;;;;9.20;2.10;;;;;;;9.84;100.00;101781.84;5073139;28;20056;-82
2022/04/20 00:29:23;;;;;;;9.52;2.20;;;;;;;9.78;100.00;101790.66;5072126;28;20044;-81
2022/04/20 00:31:50;;;;;;;9.18;2.15;;;;;;;9.73;100.00;101774.19;5072968;28;20049;-81
2022/04/20 00:34:17;;;;;;;8.63;2.10;;;;;;;9.82;100.00;101794.09;5074101;28;20414;-82
2022/04/20 00:36:44;;;;;;;8.10;1.98;;;;;;;9.73;100.00;101789.03;5072634;28;20585;-82
2022/04/20 00:39:12;;;;;;;6.72;1.90;;;;;;;9.65;100.00;101789.13;5072234;28;20406;-82
2022/04/20 00:41:39;;;;;;;8.90;2.05;;;;;;;9.61;100.00;101803.16;5071268;28;20049;-81
2022/04/20 00:44:06;;;;;;;6.88;1.80;;;;;;;9.54;100.00;101796.31;5084680;28;20057;-82
2022/04/20 00:46:34;;;;;;;7.47;1.83;;;;;;;9.46;100.00;101788.59;5085401;28;20096;-82
2022/04/20 00:49:01;;;;;;;7.75;2.00;;;;;;;9.22;100.00;101798.53;5087100;28;20099;-82
2022/04/20 00:51:31;;;;;;;8.20;1.90;;;;;;;9.19;100.00;101777.69;5062684;28;20052;-82
2022/04/20 00:54:02;;;;;;;6.55;1.73;;;;;;;9.66;100.00;101802.19;5085483;28;20059;-82
2022/04/20 00:56:28;;;;;;;9.45;2.13;;;;;;;9.53;100.00;101798.06;5052174;28;20071;-81
2022/04/20 00:58:57;;;;;;;5.20;1.88;;;;;;;9.49;100.00;101781.56;5051864;28;20136;-81
2022/04/20 01:01:26;;;;;;;8.82;2.47;;;;;;;9.45;100.00;101792.09;5071734;28;20393;-82
2022/04/20 01:03:54;;;;;;;8.57;2.10;;;;;;;9.24;100.00;101765.44;5072351;28;20453;-81
2022/04/20 01:06:21;;;;;;;7.50;2.30;;;;;;;9.39;100.00;101793.06;5062370;28;20049;-83
2022/04/20 01:08:48;;;;;;;9.27;2.20;;;;;;;9.42;100.00;101792.13;5053529;28;20045;-81
2022/04/20 01:11:15;;;;;;;8.00;2.08;;;;;;;9.43;100.00;101781.66;5102135;28;20051;-82
2022/04/20 01:13:42;;;;;;;7.10;2.25;;;;;;;9.32;100.00;101771.38;5054441;28;20060;-81
2022/04/20 01:16:09;;;;;;;8.60;2.30;;;;;;;9.04;100.00;101741.34;5065417;28;20083;-82
2022/04/20 01:18:42;;;;;;;11.55;3.95;;;;;;;8.86;100.00;101768.59;5072223;28;20139;-83
2022/04/20 01:21:10;;;;;;;8.25;1.88;;;;;;;8.97;100.00;101784.13;5071202;28;20040;-82
2022/04/20 01:23:38;;;;;;;6.53;2.10;;;;;;;8.94;100.00;101790.22;5059761;28;20055;-82
2022/04/20 01:26:07;;;;;;;10.68;2.50;;;;;;;8.82;100.00;101798.22;5071443;28;20403;-82
2022/04/20 01:28:42;;;;;;;9.70;2.17;;;;;;;8.74;100.00;101793.97;5071514;28;20061;-82
2022/04/20 01:31:16;;;;;;;12.95;2.70;;;;;;;8.59;100.00;101773.31;5071798;28;20044;-82
2022/04/20 01:33:44;;;;;;;6.20;1.80;;;;;;;8.86;100.00;101806.00;5071619;28;20056;-82
2022/04/20 01:36:11;;;;;;;9.05;2.00;;;;;;;8.73;100.00;101796.63;5071910;28;20569;-83
2022/04/20 01:38:39;;;;;;;10.45;2.17;;;;;;;8.83;100.00;101795.59;5073010;28;20053;-82
2022/04/20 01:41:06;;;;;;;7.50;2.08;;;;;;;8.97;100.00;101773.66;5070615;28;20044;-82
2022/04/20 01:43:32;;;;;;;9.05;2.65;;;;;;;9.11;100.00;101776.94;5066125;28;20048;-82
2022/04/20 01:45:59;;;;;;;5.28;1.80;;;;;;;9.12;100.00;101758.63;5072309;28;20058;-82
2022/04/20 01:48:27;;;;;;;7.63;2.13;;;;;;;9.20;100.00;101784.63;5071134;28;20426;-81
2022/04/20 01:53:38;;;;;;;10.18;2.97;;;;;;;8.97;100.00;101779.75;5072259;28;20496;-82
2022/04/20 01:56:06;;;;;;;9.43;2.47;;;;;;;8.88;100.00;101766.81;5071600;28;20567;-82
2022/04/20 01:58:37;;;;;;;7.72;2.80;;;;;;;8.96;100.00;101784.97;5071263;28;20417;-81
2022/04/20 02:02:34;;;;;;;8.52;2.20;;;;;;;8.76;100.00;101780.91;5070431;28;20426;-81
2022/04/20 02:03:50;;;;;;;7.13;2.38;;;;;;;8.63;100.00;101779.34;5072111;28;20098;-82
2022/04/20 02:06:17;;;;;;;5.97;1.70;;;;;;;8.64;100.00;101783.66;5071297;28;20060;-81
2022/04/20 02:08:44;;;;;;;6.72;1.90;;;;;;;8.71;100.00;101773.16;5072041;28;20055;-82
2022/04/20 02:11:11;;;;;;;7.80;1.88;;;;;;;8.66;100.00;101748.84;5070086;28;20057;-82
2022/04/20 02:13:38;;;;;;;6.57;2.17;;;;;;;8.67;100.00;101775.81;5053038;28;20049;-82
2022/04/20 02:16:05;;;;;;;7.20;2.13;;;;;;;8.67;100.00;101789.72;5052588;28;20049;-82
2022/04/20 02:18:32;;;;;;;8.63;1.85;;;;;;;8.61;100.00;101778.50;5051985;28;20624;-82
2022/04/20 02:20:59;;;;;;;6.90;1.90;;;;;;;8.54;100.00;101778.56;5100527;28;20478;-82
2022/04/20 02:23:26;;;;;;;9.15;2.42;;;;;;;8.53;100.00;101778.59;5069343;28;20131;-82
2022/04/20 02:25:54;;;;;;;5.72;1.80;;;;;;;8.64;100.00;101791.50;5071914;28;20059;-82
2022/04/20 02:28:21;;;;;;;8.27;1.92;;;;;;;8.60;100.00;101779.38;5071137;28;20640;-82
2022/04/20 02:30:47;;;;;;;6.03;1.80;;;;;;;8.68;100.00;101764.50;5069724;28;20136;-82
2022/04/20 02:33:14;;;;;;;4.88;1.77;;;;;;;8.84;100.00;101786.91;5070457;28;20052;-82
2022/04/20 02:35:41;;;;;;;8.50;1.92;;;;;;;8.78;100.00;101773.91;5070248;28;20060;-82
2022/04/20 02:38:10;;;;;;;4.88;2.05;;;;;;;8.79;100.00;101769.56;5069890;28;20127;-82
2022/04/20 02:40:41;;;;;;;6.63;1.70;;;;;;;8.75;100.00;101776.59;5070043;28;20624;-82
2022/04/20 02:43:08;;;;;;;8.45;2.47;;;;;;;8.69;100.00;101753.16;5055242;28;20055;-82
2022/04/20 02:45:36;;;;;;;6.85;1.67;;;;;;;8.61;100.00;101771.53;5068082;28;20055;-82
2022/04/20 02:48:03;;;;;;;7.40;2.17;;;;;;;8.24;100.00;101765.88;5071201;28;20501;-82
2022/04/20 02:50:30;;;;;;;5.82;1.67;;;;;;;8.27;100.00;101778.84;5069336;28;20131;-82
2022/04/20 02:52:57;;;;;;;5.07;1.60;;;;;;;8.26;100.00;101784.97;5075667;28;20058;-82
2022/04/20 02:55:24;;;;;;;9.25;2.05;;;;;;;8.14;100.00;101780.75;5090340;28;20070;-81
2022/04/20 02:57:51;;;;;;;6.18;1.77;;;;;;;7.82;100.00;101778.47;5089759;28;20055;-82
2022/04/20 03:00:18;;;;;;;11.35;1.92;;;;;;;7.76;100.00;101769.81;5078800;28;20048;-82
2022/04/20 03:02:44;;;;;;;6.78;1.70;;;;;;;7.85;100.00;101760.19;5079824;28;20482;-81
2022/04/20 03:05:11;;;;;;;4.65;1.70;;;;;;;7.84;100.00;101776.72;5069750;28;20059;-81
2022/04/20 03:07:38;;;;;;;6.75;1.90;;;;;;;7.62;100.00;101770.84;5070401;28;20398;-82
2022/04/20 03:10:05;;;;;;;4.85;1.65;;;;;;;7.55;100.00;101752.63;5069680;28;20049;-82
2022/04/20 03:12:32;;;;;;;5.35;1.48;;;;;;;7.66;100.00;101760.34;5070999;28;20041;-82
2022/04/20 03:14:59;;;;;;;7.05;1.75;;;;;;;7.83;100.00;101772.38;5070192;28;20048;-83
2022/04/20 03:17:25;;;;;;;5.18;1.70;;;;;;;7.93;100.00;101779.22;5071041;28;20044;-83
2022/04/20 03:19:52;;;;;;;5.28;1.70;;;;;;;8.05;100.00;101783.47;5068452;28;20439;-82
2022/04/20 03:22:19;;;;;;;14.73;2.17;;;;;;;8.03;100.00;101783.47;5070395;28;20048;-83
2022/04/20 03:24:46;;;;;;;7.72;1.67;;;;;;;7.97;100.00;101773.97;5079577;28;20048;-83
2022/04/20 03:27:12;;;;;;;5.97;1.63;;;;;;;7.84;100.00;101787.13;5090627;28;20401;-82
2022/04/20 03:29:41;;;;;;;7.20;1.90;;;;;;;7.65;100.00;101776.88;5083236;28;20056;-82
2022/04/20 03:32:09;;;;;;;9.23;2.00;;;;;;;7.66;100.00;101788.19;5071411;28;20406;-83
2022/04/20 03:34:40;;;;;;;8.57;1.90;;;;;;;7.48;100.00;101768.34;5069725;28;20490;-82
2022/04/20 03:37:09;;;;;;;6.50;1.63;;;;;;;7.74;100.00;101782.00;5069992;28;20055;-82
2022/04/20 03:39:37;;;;;;;4.55;1.70;;;;;;;7.83;100.00;101780.22;5069259;28;20401;-82
2022/04/20 03:42:04;;;;;;;6.35;1.90;;;;;;;7.92;100.00;101778.38;5071583;28;20044;-82
2022/04/20 03:44:32;;;;;;;6.10;1.70;;;;;;;7.52;100.00;101752.66;5070268;28;20062;-81
2022/04/20 03:46:58;;;;;;;6.78;2.08;;;;;;;7.48;100.00;101721.44;5070249;28;20062;-83
2022/04/20 03:49:25;;;;;;;5.18;1.55;;;;;;;7.52;100.00;101728.34;5073107;28;20058;-83
2022/04/20 03:51:52;;;;;;;8.68;1.83;;;;;;;7.31;100.00;101705.94;5070690;28;20044;-83
2022/04/20 03:54:19;;;;;;;8.85;1.75;;;;;;;7.35;100.00;101723.28;5075208;28;20569;-83
2022/04/20 03:57:04;;;;;;;5.60;1.75;;;;;;;7.38;100.00;101724.13;5074401;28;20052;-81
2022/04/20 03:59:32;;;;;;;5.22;1.77;;;;;;;7.72;100.00;101751.59;5073742;28;20148;-82
2022/04/20 04:01:59;;;;;;;8.60;1.70;;;;;;;7.58;100.00;101749.16;5074027;28;20462;-83
2022/04/20 04:04:27;;;;;;;7.53;1.60;;;;;;;7.59;100.00;101762.16;5075591;28;20494;-81
2022/04/20 04:06:54;;;;;;;5.80;2.47;;;;;;;7.66;100.00;101765.56;5073694;28;20597;-82
2022/04/20 04:09:20;;;;;;;6.85;1.73;;;;;;;7.57;100.00;101765.66;5072453;28;20432;-82
2022/04/20 04:11:47;;;;;;;5.65;1.83;;;;;;;7.25;100.00;101750.28;5074278;28;20052;-83
2022/04/20 04:14:14;;;;;;;5.47;1.80;;;;;;;7.29;100.00;101746.78;5073121;28;20052;-82
2022/04/20 04:16:41;;;;;;;8.68;1.98;;;;;;;7.21;100.00;101720.78;5073824;28;20482;-82
2022/04/20 04:19:08;;;;;;;8.00;1.60;;;;;;;7.40;100.00;101765.78;5070436;28;20128;-81
2022/04/20 04:21:36;;;;;;;5.07;1.50;;;;;;;7.25;100.00;101745.94;5072801;28;20044;-81
2022/04/20 04:24:08;;;;;;;5.85;1.83;;;;;;;7.37;100.00;101764.06;5064217;28;20063;-81
2022/04/20 04:26:35;;;;;;;6.80;1.73;;;;;;;7.34;100.00;101753.66;5052761;28;20410;-81
2022/04/20 04:29:02;;;;;;;3.85;1.60;;;;;;;7.35;100.00;101758.03;5053702;28;20131;-81
2022/04/20 04:31:30;;;;;;;6.78;1.90;;;;;;;7.16;100.00;101725.19;5072066;28;20052;-82
2022/04/20 04:33:57;;;;;;;8.00;1.92;;;;;;;7.07;100.00;101764.31;5072582;28;20574;-81
2022/04/20 04:36:24;;;;;;;3.92;1.55;;;;;;;6.89;100.00;101750.53;5072729;28;20058;-81
2022/04/20 04:38:52;;;;;;;6.07;1.75;;;;;;;6.80;100.00;101764.47;5072748;28;20453;-82
2022/04/20 04:41:18;;;;;;;4.55;1.70;;;;;;;6.93;100.00;101764.41;5071480;28;20446;-81
2022/04/20 04:43:45;;;;;;;6.93;1.90;;;;;;;7.06;100.00;101742.59;5053533;28;20052;-82
2022/04/20 04:48:57;;;;;;;6.28;1.70;;;;;;;7.07;100.00;101754.75;5053467;28;20072;-81
2022/04/20 04:51:24;;;;;;;5.15;1.63;;;;;;;6.95;100.00;101741.81;5071314;28;20048;-81
2022/04/20 04:53:51;;;;;;;5.38;2.30;;;;;;;7.08;100.00;101761.66;5061734;28;20072;-81
2022/04/20 04:56:18;;;;;;;7.20;1.73;;;;;;;6.96;100.00;101727.94;5073673;28;20056;-82
2022/04/20 04:58:44;;;;;;;7.50;2.17;;;;;;;7.20;100.00;101756.38;5072161;28;20048;-81
2022/04/20 05:01:11;;;;;;;3.42;1.40;;;;;;;7.27;100.00;101753.75;5070680;28;20425;-82
2022/04/20 05:03:38;;;;;;;6.25;1.92;;;;;;;7.31;100.00;101751.13;5071633;28;20052;-82
2022/04/20 05:06:05;;;;;;;6.35;1.52;;;;;;;7.26;100.00;101762.41;5071517;28;20509;-81
2022/04/20 05:08:31;;;;;;;4.47;1.70;;;;;;;7.14;100.00;101761.66;5071868;28;20372;-81
2022/04/20 05:10:58;;;;;;;5.65;1.90;;;;;;;7.13;100.00;101757.28;5070378;28;20049;-82
2022/04/20 05:13:25;;;;;;;7.35;2.10;;;;;;;7.04;100.00;101758.22;5071617;28;20048;-81
2022/04/20 05:15:52;;;;;;;6.45;1.85;;;;;;;6.80;100.00;101745.38;5072233;28;20059;-81
2022/04/20 05:18:18;;;;;;;6.55;1.77;;;;;;;6.65;100.00;101761.94;5071573;28;20041;-82
2022/04/20 05:20:45;;;;;;;6.03;1.70;;;;;;;6.64;100.00;101750.66;5068668;28;20058;-81
2022/04/20 05:23:12;;;;;;;7.30;1.95;;;;;;;6.69;100.00;101735.00;5064521;28;20048;-82
2022/04/20 05:25:39;;;;;;;6.15;2.00;;;;;;;6.78;100.00;101760.13;5057239;28;20122;-82
2022/04/20 05:28:06;;;;;;;15.90;2.80;;;;;;;6.89;100.00;101754.84;5061702;28;20475;-82
2022/04/20 05:30:33;;;;;;;5.13;1.90;;;;;;;6.84;100.00;101758.34;5062667;28;20063;-82
2022/04/20 05:33:00;;;;;;;7.30;2.10;;;;;;;7.17;100.00;101771.16;5056479;28;20048;-81
2022/04/20 05:35:27;;;;;;;8.43;3.08;;;;;;;6.98;100.00;101760.88;5059482;28;20076;-82
2022/04/20 05:43:24;;;;;;;7.10;2.30;;;;;;;6.33;100.00;101733.47;5063231;28;20048;-82
2022/04/20 05:45:52;;;;;;;12.32;3.80;;;;;;;6.49;100.00;101792.34;5057710;28;20494;-82
2022/04/20 05:48:24;;;;;;;8.48;2.58;;;;;;;6.55;100.00;101723.81;5061091;28;20558;-82
2022/04/20 05:50:51;;;;;;;10.32;3.08;;;;;;;6.94;100.00;101733.16;5059581;28;20048;-82
2022/04/20 05:53:18;;;;;;;8.55;2.20;;;;;;;7.17;100.00;101760.75;5067159;28;20464;-82
2022/04/20 05:55:45;;;;;;;8.90;3.05;;;;;;;6.67;100.00;101721.13;5062618;28;20079;-82
2022/04/20 05:58:11;;;;;;;7.00;2.38;;;;;;;7.32;100.00;101775.41;5061089;28;20071;-82
2022/04/20 06:00:38;;;;;;;9.55;2.58;;;;;;;7.33;100.00;101758.88;5058559;28;20040;-83
2022/04/20 06:03:05;;;;;;;5.90;2.28;;;;;;;7.30;100.00;101738.09;5090967;28;20045;-84
2022/04/20 06:05:32;;;;;;;7.38;2.28;;;;;;;7.05;100.00;101759.09;5065222;28;20398;-83
2022/04/20 06:07:59;;;;;;;7.30;2.55;;;;;;;7.27;100.00;101735.50;5066551;28;20063;-83
2022/04/20 06:10:29;;;;;;;8.27;2.50;;;;;;;7.38;100.00;101794.47;5063995;28;20049;-85
2022/04/20 06:12:55;;;;;;;8.88;3.25;;;;;;;6.98;100.00;101771.28;5063097;28;20049;-84
2022/04/20 06:15:22;;;;;;;10.73;3.20;;;;;;;6.95;100.00;101741.81;5058519;28;20052;-84
2022/04/20 06:17:49;;;;;;;7.30;2.65;;;;;;;7.22;100.00;101725.13;5061837;28;20059;-83
2022/04/20 06:20:16;;;;;;;7.80;2.63;;;;;;;7.60;100.00;101768.25;5056747;28;20140;-83
2022/04/20 06:22:42;;;;;;;7.68;2.70;;;;;;;7.42;100.00;101758.84;5062461;28;20048;-83
2022/04/20 06:25:09;;;;;;;10.32;3.30;;;;;;;7.60;100.00;101735.22;5056574;28;20053;-83
2022/04/20 06:27:36;;;;;;;9.60;2.25;;;;;;;8.05;100.00;101766.06;5060761;28;20052;-83
2022/04/20 06:30:04;;;;;;;7.95;2.40;;;;;;;7.82;100.00;101731.53;5060757;28;20049;-84
2022/04/20 06:32:31;;;;;;;11.00;3.35;;;;;;;7.72;100.00;101765.53;5060814;28;20056;-83
2022/04/20 06:34:58;;;;;;;7.95;2.47;;;;;;;8.49;100.00;101767.31;5060642;28;20421;-83
2022/04/20 06:37:25;;;;;;;8.70;3.45;;;;;;;9.81;100.00;101764.47;5061793;28;20049;-85
2022/04/20 06:39:54;;;;;;;6.72;2.38;;;;;;;10.38;100.00;101749.47;5061960;28;20140;-85
2022/04/20 06:42:21;;;;;;;8.85;2.65;;;;;;;10.61;100.00;101720.19;5088827;28;20131;-85
2022/04/20 06:44:48;;;;;;;6.60;2.35;;;;;;;10.78;100.00;101738.13;5062446;28;20716;-85
2022/04/20 06:47:14;;;;;;;9.38;2.20;;;;;;;11.45;100.00;101737.41;5062439;28;20095;-85
2022/04/20 06:49:42;;;;;;;9.00;2.45;;;;;;;11.13;98.62;101715.47;5063467;28;20052;-85
2022/04/20 07:00:25;;;;;;;7.40;2.13;;;;;;;11.58;99.93;101739.69;5059243;28;20138;-83
2022/04/20 07:03:03;;;;;;;7.95;1.90;;;;;;;12.23;95.34;101739.72;5070462;28;20094;-83
2022/04/20 07:05:29;;;;;;;9.23;2.83;;;;;;;12.65;92.15;101703.44;5061033;28;20049;-83
2022/04/20 07:08:03;;;;;;;7.35;2.28;;;;;;;12.95;88.80;101761.22;5051943;28;20095;-83
2022/04/20 07:10:31;;;;;;;8.65;2.17;;;;;;;13.58;85.69;101758.34;5063037;28;20055;-84
2022/04/20 07:12:58;;;;;;;9.50;2.22;;;;;;;13.48;83.35;101708.69;5070239;28;20112;-83
2022/04/20 07:15:25;;;;;;;8.45;2.38;;;;;;;13.51;84.26;101718.25;5070864;28;20048;-83
2022/04/20 07:17:52;;;;;;;10.55;2.47;;;;;;;13.91;79.06;101718.63;5070425;28;20052;-84
2022/04/20 07:20:18;;;;;;;8.30;2.33;;;;;;;13.97;80.13;101718.38;5071402;28;20044;-84
2022/04/20 07:22:53;;;;;;;11.23;2.70;;;;;;;13.62;78.94;101716.09;5070780;28;20055;-83
2022/04/20 07:25:20;;;;;;;6.75;2.10;;;;;;;13.19;82.56;101714.03;5074508;28;20124;-84
2022/04/20 07:27:48;;;;;;;6.05;2.03;;;;;;;13.70;81.12;101728.13;5075161;28;20370;-84
2022/04/20 07:30:16;;;;;;;9.98;1.90;;;;;;;14.69;83.77;101733.31;5076365;28;20059;-83
2022/04/20 07:32:44;;;;;;;7.25;1.98;;;;;;;15.41;76.71;101740.09;5065171;28;20052;-82
2022/04/20 07:35:11;;;;;;;8.38;2.40;;;;;;;15.67;77.24;101734.56;5059137;28;20059;-82
2022/04/20 07:37:37;;;;;;;8.23;2.03;;;;;;;15.59;76.29;101749.88;5070026;28;20045;-85
2022/04/20 07:40:05;;;;;;;9.82;2.78;;;;;;;15.15;83.15;101727.03;5073135;28;20131;-84
2022/04/20 07:42:32;;;;;;;11.20;3.17;;;;;;;13.96;99.25;101712.28;5074975;28;20070;-85
2022/04/20 07:44:59;;;;;;;9.45;2.95;;;;;;;14.59;98.49;101711.75;5075027;28;20059;-84
2022/04/20 07:47:28;;;;;;;8.38;2.50;;;;;;;15.25;90.15;101756.56;5065477;28;20545;-85
2022/04/20 07:53:00;;;;;;;11.98;2.97;;;;;;;14.42;94.13;101768.53;5075410;28;20343;-86
2022/04/20 07:55:31;;;;;;;9.55;2.28;;;;;;;15.12;90.04;101715.75;5073713;28;20606;-86
2022/04/20 07:58:00;;;;;;;10.27;3.35;;;;;;;14.92;85.60;101735.88;5074001;28;20083;-86
2022/04/20 08:00:27;;;;;;;10.07;2.58;;;;;;;16.15;79.90;101737.78;5074131;28;20060;-85
2022/04/20 08:03:09;;;;;;;13.23;4.13;;;;;;;15.49;84.25;101744.13;5074289;28;20425;-82
2022/04/20 08:05:36;;;;;;;7.32;1.90;;;;;;;16.79;79.50;101733.09;5073797;28;20091;-84
2022/04/20 08:08:03;;;;;;;10.70;2.47;;;;;;;15.25;78.51;101718.78;5073321;28;20048;-85
2022/04/20 08:10:29;;;;;;;8.25;2.35;;;;;;;15.11;85.23;101746.56;5073307;28;20118;-84
2022/04/20 08:12:56;;;;;;;7.60;2.05;;;;;;;16.21;79.15;101731.38;5065271;28;20048;-85
2022/04/20 08:15:23;;;;;;;15.50;3.13;;;;;;;16.01;78.75;101722.56;5060639;28;20429;-84
2022/04/20 08:17:49;;;;;;;9.52;2.70;;;;;;;15.40;88.45;101741.84;5054735;28;20053;-85
2022/04/20 08:20:16;;;;;;;12.75;3.13;;;;;;;15.66;85.50;101718.78;5065000;28;20379;-85
2022/04/20 08:22:44;;;;;;;10.27;1.85;;;;;;;16.58;85.04;101717.28;5072111;28;20047;-84
2022/04/20 08:25:13;;;;;;;9.40;2.10;;;;;;;15.96;86.57;101743.03;5071503;28;20058;-85
2022/04/20 08:27:40;;;;;;;9.02;2.83;;;;;;;15.62;83.51;101727.78;5074009;28;20083;-84
2022/04/20 08:30:08;;;;;;;8.07;2.40;;;;;;;15.64;84.41;101721.50;5071550;28;20131;-84
2022/04/20 08:32:35;;;;;;;9.90;2.05;;;;;;;15.96;83.34;101710.47;5072337;28;20040;-84
2022/04/20 08:35:02;;;;;;;7.95;2.25;;;;;;;15.30;84.12;101707.09;5074620;28;20088;-84
2022/04/20 08:37:29;;;;;;;9.18;2.13;;;;;;;15.73;84.05;101705.25;5072899;28;20070;-84
2022/04/20 08:39:56;;;;;;;6.45;1.67;;;;;;;16.33;80.97;101717.59;5071624;28;20076;-84
2022/04/20 08:42:24;;;;;;;10.10;2.33;;;;;;;16.59;78.15;101726.06;5072426;28;20478;-84
2022/04/20 08:44:51;;;;;;;6.65;1.55;;;;;;;16.35;80.91;101754.53;5072677;28;20365;-84
2022/04/20 08:47:23;;;;;;;5.32;1.38;;;;;;;16.77;77.89;101712.00;5073180;28;20048;-84
2022/04/20 08:49:51;;;;;;;9.93;2.35;;;;;;;15.99;77.20;101740.25;5072240;28;20079;-84
2022/04/20 08:52:37;;;;;;;8.60;2.15;;;;;;;15.92;78.73;101752.03;5073642;28;20040;-84
2022/04/20 08:55:15;;;;;;;8.95;2.30;;;;;;;17.09;72.90;101706.94;5057681;28;20053;-84
2022/04/20 08:57:46;;;;;;;9.60;2.53;;;;;;;17.15;72.64;101743.69;5052320;28;20057;-84
2022/04/20 09:00:20;;;;;;;8.35;2.33;;;;;;;16.95;74.88;101747.31;5063468;28;20052;-84
2022/04/20 09:02:55;;;;;;;6.95;1.90;;;;;;;17.52;74.61;101727.75;5071441;28;20133;-84
2022/04/20 09:05:25;;;;;;;12.88;3.88;;;;;;;16.70;82.84;101707.94;5060187;28;20139;-84
2022/04/20 09:07:52;;;;;;;7.97;3.00;;;;;;;16.85;80.20;101704.56;5087184;28;20061;-84
2022/04/20 09:10:20;;;;;;;12.18;4.28;;;;;;;16.50;85.08;101730.00;5070825;28;20143;-84
2022/04/20 09:13:00;;;;;;;13.68;4.32;;;;;;;16.65;88.92;101726.66;5071704;28;20752;-85
2022/04/20 09:15:31;;;;;;;12.02;5.22;;;;;;;16.52;90.91;101730.81;5067015;28;20139;-84
2022/04/20 09:18:01;;;;;;;12.13;4.15;;;;;;;16.31;89.29;101738.81;5073225;28;20040;-84
2022/04/20 09:20:31;;;;;;;13.20;4.55;;;;;;;15.97;90.76;101730.66;5071507;28;20083;-84
2022/04/20 09:23:18;;;;;;;11.30;4.22;;;;;;;15.55;100.00;101741.22;5071441;28;20393;-84
2022/04/20 09:25:50;;;;;;;11.52;4.35;;;;;;;15.06;100.00;101735.34;5054821;28;20487;-84
2022/04/20 09:28:17;;;;;;;12.68;4.70;;;;;;;14.40;100.00;101733.47;5064678;28;20045;-84
2022/04/20 09:30:44;;;;;;;10.43;4.30;;;;;;;14.87;100.00;101723.81;5064301;28;20140;-84
2022/04/20 09:33:10;;;;;;;10.68;4.13;;;;;;;15.61;100.00;101702.28;5069879;28;20124;-84
2022/04/20 09:35:45;;;;;;;10.13;3.45;;;;;;;14.97;100.00;101667.16;5071665;28;20057;-84
2022/04/20 09:38:14;;;;;;;9.75;3.83;;;;;;;15.61;97.91;101675.91;5071454;28;20044;-82
2022/04/20 09:40:40;;;;;;;11.43;4.75;;;;;;;15.13;95.25;101701.66;5070891;28;20048;-85
2022/04/20 09:43:15;;;;;;;12.70;4.70;;;;;;;15.33;93.65;101706.09;5069560;28;20053;-85
2022/04/20 09:45:42;;;;;;;10.18;3.97;;;;;;;15.03;90.78;101722.25;5071890;28;20088;-85
2022/04/20 09:51:20;;;;;;;11.93;3.58;;;;;;;15.88;86.19;101705.53;5068587;28;20501;-84
2022/04/20 09:53:49;;;;;;;9.15;3.38;;;;;;;15.84;85.68;101707.44;5065355;28;20476;-84
2022/04/20 09:56:19;;;;;;;10.35;4.05;;;;;;;15.79;87.51;101706.78;5051247;28;20151;-84
2022/04/20 09:58:47;;;;;;;10.55;3.10;;;;;;;15.68;80.69;101704.59;5050749;28;20048;-84
2022/04/20 10:01:30;;;;;;;11.88;3.80;;;;;;;15.89;82.34;101694.03;5069690;28;20410;-84
2022/04/20 10:04:00;;;;;;;7.55;2.53;;;;;;;16.33;81.73;101697.28;5066403;28;20041;-84
2022/04/20 10:06:28;;;;;;;11.52;3.55;;;;;;;15.47;83.00;101689.69;5071497;28;20049;-84
2022/04/20 10:08:55;;;;;;;8.95;3.03;;;;;;;16.32;81.58;101682.38;5072092;28;20059;-84
2022/04/20 10:11:22;;;;;;;9.35;3.28;;;;;;;15.92;79.21;101668.34;5070797;28;20478;-84
2022/04/20 10:16:56;;;;;;;9.82;3.92;;;;;;;15.65;83.76;101678.34;5071930;28;20658;-84
2022/04/20 10:19:28;;;;;;;8.77;2.90;;;;;;;16.09;85.68;101691.34;5070220;28;20051;-84
2022/04/20 10:21:57;;;;;;;11.82;4.13;;;;;;;15.08;89.68;101667.56;5071057;28;20159;-84
2022/04/20 10:24:29;;;;;;;8.93;3.20;;;;;;;15.57;91.41;101691.00;5070543;28;20506;-84
2022/04/20 10:27:16;;;;;;;9.25;3.45;;;;;;;15.45;93.19;101663.34;5051412;28;20132;-84
2022/04/20 10:29:57;;;;;;;7.88;2.75;;;;;;;16.02;86.51;101650.28;5058393;28;20639;-84
2022/04/20 10:32:26;;;;;;;10.82;2.97;;;;;;;15.90;86.67;101691.34;5070583;28;20123;-84
2022/04/20 10:34:53;;;;;;;11.35;3.78;;;;;;;15.56;90.54;101678.72;5070577;28;20140;-84
2022/04/20 10:37:31;;;;;;;10.45;3.55;;;;;;;15.16;91.48;101691.84;5071064;28;20059;-84
2022/04/20 10:40:15;;;;;;;8.43;3.60;;;;;;;14.86;94.87;101664.97;5069892;28;20048;-84
2022/04/20 10:42:44;;;;;;;8.48;3.10;;;;;;;14.94;94.65;101652.31;5070423;28;20052;-84
2022/04/20 10:45:12;;;;;;;10.50;3.05;;;;;;;15.42;92.83;101681.94;5069785;28;20078;-85
2022/04/20 10:47:44;;;;;;;9.65;3.67;;;;;;;15.43;95.83;101682.84;5070615;28;20117;-84
2022/04/20 10:50:19;;;;;;;;;;;;;;;14.92;99.84;101683.16;5069927;28;20462;-85
2022/04/20 10:52:47;;;;;;;;;;;;;;;14.48;100.00;101691.00;5071119;28;19924;-85
2022/04/20 10:55:14;;;;;;;9.32;3.45;;;;;;;13.65;100.00;101678.28;5064228;28;20379;-85
2022/04/20 10:57:42;;;;;;;8.55;2.92;;;;;;;14.29;100.00;101648.72;5051771;28;20088;-86
2022/04/20 11:00:21;;;;;;;15.18;2.90;;;;;;;14.42;100.00;101694.75;5063605;28;20050;-85
2022/04/20 11:03:00;;;;;;;7.40;2.58;;;;;;;14.89;100.00;101677.16;5074725;28;20490;-83
2022/04/20 11:05:27;;;;;;;7.93;3.10;;;;;;;14.67;100.00;101685.06;5054905;28;20107;-83
2022/04/20 11:08:04;;;;;;;9.48;2.75;;;;;;;14.19;100.00;101693.00;5055263;28;20152;-84
2022/04/20 11:10:32;;;;;;;6.63;2.28;;;;;;;14.23;100.00;101699.84;5068257;28;20045;-84
2022/04/20 11:19:02;;;;;;;11.10;3.47;;;;;;;14.13;100.00;101682.69;5056066;28;20548;-84
2022/04/20 11:21:30;;;;;;;6.57;2.80;;;;;;;15.08;100.00;101675.47;5074493;28;20084;-84
2022/04/20 11:24:07;;;;;;;6.63;2.40;;;;;;;14.45;100.00;101638.47;5075331;28;20041;-84
2022/04/20 11:26:35;;;;;;;7.25;3.50;;;;;;;15.27;99.86;101682.63;5074077;28;20056;-85
2022/04/20 11:29:17;;;;;;;11.57;3.10;;;;;;;15.48;95.35;101647.41;5074496;28;20470;-84
2022/04/20 11:31:47;;;;;;;8.20;2.97;;;;;;;14.56;99.97;101673.13;5090279;28;20053;-84
2022/04/20 11:34:20;;;;;;;8.30;2.90;;;;;;;15.38;90.88;101631.09;5074991;28;20101;-83
2022/04/20 11:36:53;;;;;;;7.03;2.35;;;;;;;15.82;89.11;101671.47;5074406;28;20060;-83
2022/04/20 11:39:22;;;;;;;5.97;2.10;;;;;;;14.97;95.65;101646.91;5073978;28;20063;-85
2022/04/20 11:42:00;;;;;;;9.57;3.45;;;;;;;14.72;95.51;101636.50;5074318;28;20056;-85
2022/04/20 11:44:32;;;;;;;5.80;2.35;;;;;;;14.20;100.00;101633.25;5072784;28;20052;-85
2022/04/20 11:47:09;;;;;;;11.50;3.15;;;;;;;14.48;100.00;101616.38;5075119;28;20048;-85
2022/04/20 11:49:41;;;;;;;6.68;2.67;;;;;;;14.96;96.38;101668.94;5074465;28;20823;-85
2022/04/20 11:52:11;;;;;;;9.20;3.15;;;;;;;14.01;98.70;101627.84;5074698;28;20041;-85
2022/04/20 11:54:40;;;;;;;9.13;2.97;;;;;;;15.11;97.07;101667.44;5066743;28;20394;-85
2022/04/20 11:57:08;;;;;;;10.55;2.78;;;;;;;15.63;89.80;101666.13;5073764;28;20054;-85
2022/04/20 11:59:46;;;;;;;7.50;2.20;;;;;;;15.19;96.53;101638.97;5072932;28;20062;-84
2022/04/20 12:02:14;;;;;;;8.82;2.88;;;;;;;14.91;98.04;101639.25;5073989;28;20044;-85
2022/04/20 12:04:43;;;;;;;11.07;3.38;;;;;;;15.33;94.50;101642.78;5073235;28;20056;-85
2022/04/20 12:07:10;;;;;;;8.73;2.30;;;;;;;15.37;92.48;101666.34;5073704;28;20560;-85